PWSweather.com
Personal Weather Stations
Station Observations
CHKWX
Mesa Panagitsa, ChalkisGR 34100

Mesa PanagitsaChalkisGR 34100

Lat: 38.470143, Lon: 23.598348

Elevation: 30

Station Type: Ambient Weather WS-1400-IP

Latest ConditionsUpdated 12:50:00 PM GMT+02:02 Sunday, Jan 21, 2018
Currently Today's Max Today's Min Today's Average
Temperature 63.7°F17.6°C 63.7°F17.6°C 53.1°F11.7°C 55.8°F13.2°C
Dew Point 48.2°F9.0°C 51.5°F10.8°C 45.9°F7.7°C 47.6°F8.7°C
Winds 8.1 mph S13.0 kmh S 9.2 mph SSE14.8 kmh SSE - 3.4 mph 5.5 kmh
Wind Gusts 12.7 mph20.4 kmh 17.3 mph27.8 kmh - -
Humidity 57% 82% 56% 74%
Pressure 29.70 in1005.8 mb 29.88 in1011.9 mb 29.70 in1005.8 mb -
Hour Temp Dew Point Humidity Winds Wind Gusts Pressure Precip Precip Rate Daily Precip Total
12:50 PM 63.7°F17.6°C 48.2°F9.0°C 57% 8.1 mph S13.0 kmh S 12.7 mph20.4 kmh 29.70 in1005.8 mb - 0.00 in0.0 mm 0.00 in0.0 mm
12:40 PM 63.2°F17.3°C 47.7°F8.7°C 57% 8.1 mph SSE13.0 kmh SSE 17.3 mph27.8 kmh 29.71 in1006.1 mb - 0.00 in0.0 mm 0.00 in0.0 mm
12:30 PM 62.7°F17.1°C 47.2°F8.4°C 57% 6.9 mph S11.1 kmh S 15.0 mph24.1 kmh 29.71 in1006.1 mb - 0.00 in0.0 mm 0.00 in0.0 mm
12:20 PM 62.3°F16.8°C 46.4°F8.0°C 56% 9.2 mph S14.8 kmh S 12.7 mph20.4 kmh 29.70 in1005.8 mb - 0.00 in0.0 mm 0.00 in0.0 mm
12:10 PM 62.1°F16.7°C 48.5°F9.2°C 61% 9.2 mph SSE14.8 kmh SSE 12.7 mph20.4 kmh 29.71 in1006.1 mb - 0.00 in0.0 mm 0.00 in0.0 mm
12:00 PM 61.7°F16.5°C 49.4°F9.7°C 64% 4.6 mph SSE7.4 kmh SSE 8.1 mph13.0 kmh 29.73 in1006.8 mb - 0.00 in0.0 mm 0.00 in0.0 mm
11:50 AM 61.5°F16.4°C 49.2°F9.6°C 64% 2.3 mph SE3.7 kmh SE 8.1 mph13.0 kmh 29.74 in1007.1 mb - 0.00 in0.0 mm 0.00 in0.0 mm
11:40 AM 61.0°F16.1°C 51.5°F10.8°C 71% 3.5 mph SSE5.6 kmh SSE 4.6 mph7.4 kmh 29.75 in1007.5 mb - 0.00 in0.0 mm 0.00 in0.0 mm
11:30 AM 60.4°F15.8°C 51.0°F10.6°C 71% 4.6 mph S7.4 kmh S 8.1 mph13.0 kmh 29.75 in1007.5 mb - 0.00 in0.0 mm 0.00 in0.0 mm
11:20 AM 59.3°F15.2°C 49.6°F9.8°C 70% 2.3 mph ESE3.7 kmh ESE 4.6 mph7.4 kmh 29.75 in1007.5 mb - 0.00 in0.0 mm 0.00 in0.0 mm
11:10 AM 58.1°F14.5°C 49.5°F9.7°C 73% 4.6 mph SE7.4 kmh SE 8.1 mph13.0 kmh 29.76 in1007.8 mb - 0.00 in0.0 mm 0.00 in0.0 mm
11:00 AM 57.0°F13.9°C 48.8°F9.3°C 74% 3.5 mph S5.6 kmh S 4.6 mph7.4 kmh 29.77 in1008.1 mb - 0.00 in0.0 mm 0.00 in0.0 mm
10:50 AM 56.3°F13.5°C 49.2°F9.6°C 77% 6.9 mph SSE11.1 kmh SSE 10.4 mph16.7 kmh 29.77 in1008.1 mb - 0.00 in0.0 mm 0.00 in0.0 mm
10:40 AM 55.9°F13.3°C 48.4°F9.1°C 76% 3.5 mph SSE5.6 kmh SSE 8.1 mph13.0 kmh 29.78 in1008.5 mb - 0.00 in0.0 mm 0.00 in0.0 mm
10:30 AM 55.6°F13.1°C 48.2°F9.0°C 76% 9.2 mph SSE14.8 kmh SSE 12.7 mph20.4 kmh 29.78 in1008.5 mb - 0.00 in0.0 mm 0.00 in0.0 mm
10:20 AM 55.6°F13.1°C 48.5°F9.2°C 77% 8.1 mph SE13.0 kmh SE 10.4 mph16.7 kmh 29.79 in1008.8 mb - 0.00 in0.0 mm 0.00 in0.0 mm
10:10 AM 55.4°F13.0°C 48.3°F9.1°C 77% 5.8 mph SE9.3 kmh SE 8.1 mph13.0 kmh 29.79 in1008.8 mb - 0.00 in0.0 mm 0.00 in0.0 mm
10:00 AM 55.4°F13.0°C 48.0°F8.9°C 76% 4.6 mph SSE7.4 kmh SSE 4.6 mph7.4 kmh 29.80 in1009.1 mb - 0.00 in0.0 mm 0.00 in0.0 mm
09:50 AM 55.4°F13.0°C 49.0°F9.4°C 79% 1.2 mph SW1.9 kmh SW 2.3 mph3.7 kmh 29.79 in1008.8 mb - 0.00 in0.0 mm 0.00 in0.0 mm
09:40 AM 55.0°F12.8°C 47.6°F8.7°C 76% Calm Calm 2.3 mph3.7 kmh 29.80 in1009.1 mb - 0.00 in0.0 mm 0.00 in0.0 mm
09:30 AM 54.9°F12.7°C 47.8°F8.8°C 77% 1.2 mph SE1.9 kmh SE 2.3 mph3.7 kmh 29.80 in1009.1 mb - 0.00 in0.0 mm 0.00 in0.0 mm
09:20 AM 54.5°F12.5°C 47.8°F8.8°C 78% Calm Calm -- 29.80 in1009.1 mb - 0.00 in0.0 mm 0.00 in0.0 mm
09:10 AM 54.3°F12.4°C 47.2°F8.4°C 77% Calm Calm 2.3 mph3.7 kmh 29.80 in1009.1 mb - 0.00 in0.0 mm 0.00 in0.0 mm
09:00 AM 54.3°F12.4°C 47.6°F8.7°C 78% Calm Calm 2.3 mph3.7 kmh 29.81 in1009.5 mb - 0.00 in0.0 mm 0.00 in0.0 mm
08:50 AM 54.3°F12.4°C 47.6°F8.7°C 78% 1.2 mph SE1.9 kmh SE 2.3 mph3.7 kmh 29.81 in1009.5 mb - 0.00 in0.0 mm 0.00 in0.0 mm
08:40 AM 54.3°F12.4°C 47.2°F8.4°C 77% 1.2 mph SE1.9 kmh SE 2.3 mph3.7 kmh 29.81 in1009.5 mb - 0.00 in0.0 mm 0.00 in0.0 mm
08:30 AM 54.3°F12.4°C 47.2°F8.4°C 77% Calm Calm -- 29.81 in1009.5 mb - 0.00 in0.0 mm 0.00 in0.0 mm
08:20 AM 54.1°F12.3°C 47.0°F8.3°C 77% 1.2 mph ESE1.9 kmh ESE 2.3 mph3.7 kmh 29.81 in1009.5 mb - 0.00 in0.0 mm 0.00 in0.0 mm
08:10 AM 54.0°F12.2°C 47.0°F8.3°C 77% 2.3 mph SE3.7 kmh SE 4.6 mph7.4 kmh 29.81 in1009.5 mb - 0.00 in0.0 mm 0.00 in0.0 mm
08:00 AM 53.8°F12.1°C 47.1°F8.4°C 78% 4.6 mph S7.4 kmh S 4.6 mph7.4 kmh 29.81 in1009.5 mb - 0.00 in0.0 mm 0.00 in0.0 mm
07:50 AM 54.1°F12.3°C 47.7°F8.7°C 79% 3.5 mph SSE5.6 kmh SSE 4.6 mph7.4 kmh 29.81 in1009.5 mb - 0.00 in0.0 mm 0.00 in0.0 mm
07:40 AM 54.1°F12.3°C 47.0°F8.3°C 77% 1.2 mph SE1.9 kmh SE 2.3 mph3.7 kmh 29.81 in1009.5 mb - 0.00 in0.0 mm 0.00 in0.0 mm
07:30 AM 53.8°F12.1°C 46.8°F8.2°C 77% 4.6 mph SSE7.4 kmh SSE 8.1 mph13.0 kmh 29.82 in1009.8 mb - 0.00 in0.0 mm 0.00 in0.0 mm
07:20 AM 53.6°F12.0°C 46.2°F7.9°C 76% 3.5 mph SE5.6 kmh SE 4.6 mph7.4 kmh 29.82 in1009.8 mb - 0.00 in0.0 mm 0.00 in0.0 mm
07:10 AM 53.2°F11.8°C 46.5°F8.1°C 78% 3.5 mph S5.6 kmh S 4.6 mph7.4 kmh 29.82 in1009.8 mb - 0.00 in0.0 mm 0.00 in0.0 mm
07:00 AM 53.1°F11.7°C 46.8°F8.2°C 79% 2.3 mph SSE3.7 kmh SSE 8.1 mph13.0 kmh 29.82 in1009.8 mb - 0.00 in0.0 mm 0.00 in0.0 mm
06:50 AM 53.1°F11.7°C 46.8°F8.2°C 79% 4.6 mph SSE7.4 kmh SSE 8.1 mph13.0 kmh 29.81 in1009.5 mb - 0.00 in0.0 mm 0.00 in0.0 mm
06:40 AM 53.2°F11.8°C 47.2°F8.4°C 80% 3.5 mph SSE5.6 kmh SSE 4.6 mph7.4 kmh 29.81 in1009.5 mb - 0.00 in0.0 mm 0.00 in0.0 mm
06:30 AM 53.6°F12.0°C 48.2°F9.0°C 82% 2.3 mph SE3.7 kmh SE 2.3 mph3.7 kmh 29.82 in1009.8 mb - 0.00 in0.0 mm 0.00 in0.0 mm
06:20 AM 53.8°F12.1°C 47.4°F8.6°C 79% Calm Calm -- 29.82 in1009.8 mb - 0.00 in0.0 mm 0.00 in0.0 mm
06:10 AM 54.0°F12.2°C 47.3°F8.5°C 78% Calm Calm 2.3 mph3.7 kmh 29.82 in1009.8 mb - 0.00 in0.0 mm 0.00 in0.0 mm
06:00 AM 54.0°F12.2°C 47.3°F8.5°C 78% 1.2 mph SSE1.9 kmh SSE 2.3 mph3.7 kmh 29.82 in1009.8 mb - 0.00 in0.0 mm 0.00 in0.0 mm
05:50 AM 54.1°F12.3°C 46.7°F8.2°C 76% 3.5 mph SSE5.6 kmh SSE 4.6 mph7.4 kmh 29.82 in1009.8 mb - 0.00 in0.0 mm 0.00 in0.0 mm
05:40 AM 54.1°F12.3°C 47.7°F8.7°C 79% Calm Calm 2.3 mph3.7 kmh 29.83 in1010.2 mb - 0.00 in0.0 mm 0.00 in0.0 mm
05:30 AM 54.3°F12.4°C 47.6°F8.7°C 78% 2.3 mph SSE3.7 kmh SSE 4.6 mph7.4 kmh 29.83 in1010.2 mb - 0.00 in0.0 mm 0.00 in0.0 mm
05:20 AM 54.0°F12.2°C 47.0°F8.3°C 77% 5.8 mph SSE9.3 kmh SSE 8.1 mph13.0 kmh 29.83 in1010.2 mb - 0.00 in0.0 mm 0.00 in0.0 mm
05:10 AM 53.8°F12.1°C 47.1°F8.4°C 78% 3.5 mph SE5.6 kmh SE 4.6 mph7.4 kmh 29.83 in1010.2 mb - 0.00 in0.0 mm 0.00 in0.0 mm
05:00 AM 53.6°F12.0°C 47.6°F8.7°C 80% 3.5 mph SE5.6 kmh SE 4.6 mph7.4 kmh 29.84 in1010.5 mb - 0.00 in0.0 mm 0.00 in0.0 mm
04:50 AM 53.8°F12.1°C 47.8°F8.8°C 80% 2.3 mph ESE3.7 kmh ESE 2.3 mph3.7 kmh 29.85 in1010.8 mb - 0.00 in0.0 mm 0.00 in0.0 mm
04:40 AM 54.0°F12.2°C 47.6°F8.7°C 79% 1.2 mph SSE1.9 kmh SSE 2.3 mph3.7 kmh 29.85 in1010.8 mb - 0.00 in0.0 mm 0.00 in0.0 mm
04:30 AM 54.1°F12.3°C 47.7°F8.7°C 79% Calm Calm 2.3 mph3.7 kmh 29.85 in1010.8 mb - 0.00 in0.0 mm 0.00 in0.0 mm
04:20 AM 54.3°F12.4°C 47.2°F8.4°C 77% 1.2 mph E1.9 kmh E 2.3 mph3.7 kmh 29.85 in1010.8 mb - 0.00 in0.0 mm 0.00 in0.0 mm
04:10 AM 54.5°F12.5°C 47.8°F8.8°C 78% 4.6 mph S7.4 kmh S 4.6 mph7.4 kmh 29.85 in1010.8 mb - 0.00 in0.0 mm 0.00 in0.0 mm
04:00 AM 54.7°F12.6°C 47.6°F8.7°C 77% 3.5 mph SE5.6 kmh SE 4.6 mph7.4 kmh 29.86 in1011.2 mb - 0.00 in0.0 mm 0.00 in0.0 mm
03:50 AM 54.5°F12.5°C 47.1°F8.4°C 76% 4.6 mph SE7.4 kmh SE 8.1 mph13.0 kmh 29.85 in1010.8 mb - 0.00 in0.0 mm 0.00 in0.0 mm
03:40 AM 54.3°F12.4°C 46.9°F8.3°C 76% 8.1 mph SSE13.0 kmh SSE 12.7 mph20.4 kmh 29.86 in1011.2 mb - 0.00 in0.0 mm 0.00 in0.0 mm
03:30 AM 54.0°F12.2°C 46.3°F7.9°C 75% 5.8 mph SE9.3 kmh SE 10.4 mph16.7 kmh 29.86 in1011.2 mb - 0.00 in0.0 mm 0.00 in0.0 mm
03:20 AM 53.8°F12.1°C 46.4°F8.0°C 76% 5.8 mph S9.3 kmh S 8.1 mph13.0 kmh 29.87 in1011.5 mb - 0.00 in0.0 mm 0.00 in0.0 mm
03:10 AM 53.4°F11.9°C 46.4°F8.0°C 77% 4.6 mph SSE7.4 kmh SSE 8.1 mph13.0 kmh 29.87 in1011.5 mb - 0.00 in0.0 mm 0.00 in0.0 mm
03:00 AM 53.4°F11.9°C 47.0°F8.3°C 79% 3.5 mph S5.6 kmh S 4.6 mph7.4 kmh 29.86 in1011.2 mb - 0.00 in0.0 mm 0.00 in0.0 mm
02:50 AM 53.6°F12.0°C 47.2°F8.4°C 79% 3.5 mph SE5.6 kmh SE 4.6 mph7.4 kmh 29.87 in1011.5 mb - 0.00 in0.0 mm 0.00 in0.0 mm
02:40 AM 54.2°F12.3°C 48.2°F9.0°C 80% 4.6 mph SE7.4 kmh SE 8.1 mph13.0 kmh 29.87 in1011.5 mb - 0.00 in0.0 mm 0.00 in0.0 mm
02:30 AM 54.9°F12.7°C 48.2°F9.0°C 78% 3.5 mph SE5.6 kmh SE 4.6 mph7.4 kmh 29.87 in1011.5 mb - 0.00 in0.0 mm 0.00 in0.0 mm
02:20 AM 55.2°F12.9°C 48.1°F8.9°C 77% 3.5 mph SSE5.6 kmh SSE 4.6 mph7.4 kmh 29.87 in1011.5 mb - 0.00 in0.0 mm 0.00 in0.0 mm
02:10 AM 55.6°F13.1°C 47.4°F8.6°C 74% 3.5 mph SSE5.6 kmh SSE 4.6 mph7.4 kmh 29.87 in1011.5 mb - 0.00 in0.0 mm 0.00 in0.0 mm
02:00 AM 55.8°F13.2°C 47.3°F8.5°C 73% 1.2 mph SW1.9 kmh SW 2.3 mph3.7 kmh 29.87 in1011.5 mb - 0.00 in0.0 mm 0.00 in0.0 mm
01:50 AM 55.8°F13.2°C 46.5°F8.1°C 71% 4.6 mph SSE7.4 kmh SSE 4.6 mph7.4 kmh 29.86 in1011.2 mb - 0.00 in0.0 mm 0.00 in0.0 mm
01:40 AM 55.6°F13.1°C 46.7°F8.2°C 72% 3.5 mph SE5.6 kmh SE 4.6 mph7.4 kmh 29.86 in1011.2 mb - 0.00 in0.0 mm 0.00 in0.0 mm
01:30 AM 55.8°F13.2°C 46.9°F8.3°C 72% 3.5 mph ESE5.6 kmh ESE 4.6 mph7.4 kmh 29.87 in1011.5 mb - 0.00 in0.0 mm 0.00 in0.0 mm
01:20 AM 56.1°F13.4°C 47.6°F8.7°C 73% 3.5 mph SE5.6 kmh SE 4.6 mph7.4 kmh 29.87 in1011.5 mb - 0.00 in0.0 mm 0.00 in0.0 mm
01:10 AM 56.5°F13.6°C 47.6°F8.7°C 72% Calm Calm -- 29.87 in1011.5 mb - 0.00 in0.0 mm 0.00 in0.0 mm
01:00 AM 57.0°F13.9°C 47.7°F8.7°C 71% 1.2 mph S1.9 kmh S 2.3 mph3.7 kmh 29.87 in1011.5 mb - 0.00 in0.0 mm 0.00 in0.0 mm
12:50 AM 57.6°F14.2°C 47.9°F8.8°C 70% 4.6 mph SE7.4 kmh SE 4.6 mph7.4 kmh 29.86 in1011.2 mb - 0.00 in0.0 mm 0.00 in0.0 mm
12:40 AM 58.1°F14.5°C 48.0°F8.9°C 69% 2.3 mph S3.7 kmh S 4.6 mph7.4 kmh 29.87 in1011.5 mb - 0.00 in0.0 mm 0.00 in0.0 mm
12:30 AM 58.5°F14.7°C 45.9°F7.7°C 63% 1.2 mph SE1.9 kmh SE 2.3 mph3.7 kmh 29.87 in1011.5 mb - 0.00 in0.0 mm 0.00 in0.0 mm
12:20 AM 58.5°F14.7°C 47.6°F8.7°C 67% 2.3 mph ESE3.7 kmh ESE 2.3 mph3.7 kmh 29.87 in1011.5 mb - 0.00 in0.0 mm 0.00 in0.0 mm
12:10 AM 58.5°F14.7°C 46.4°F8.0°C 64% 4.6 mph SE7.4 kmh SE 4.6 mph7.4 kmh 29.87 in1011.5 mb - 0.00 in0.0 mm 0.00 in0.0 mm
12:00 AM 58.5°F14.7°C 47.2°F8.4°C 66% 3.5 mph SE5.6 kmh SE 4.6 mph7.4 kmh 29.88 in1011.9 mb - 0.00 in0.0 mm 0.00 in0.0 mm